createdAt,value
2022-11-15T00:01:27.875Z,5.03
2022-11-15T00:04:13.474Z,5.03
2022-11-15T00:06:59.226Z,4.97
2022-11-15T00:09:46.231Z,4.88
2022-11-15T00:12:32.019Z,4.93
2022-11-15T00:15:17.824Z,4.96
2022-11-15T00:18:04.520Z,4.89
2022-11-15T00:20:50.306Z,4.86
2022-11-15T00:23:35.842Z,4.77
2022-11-15T00:26:21.311Z,4.80
2022-11-15T00:29:07.031Z,4.79
2022-11-15T00:31:52.387Z,4.82
2022-11-15T00:34:38.012Z,4.78
2022-11-15T00:37:23.727Z,4.80
2022-11-15T00:40:09.922Z,4.77
2022-11-15T00:42:55.827Z,4.76
2022-11-15T00:45:41.547Z,4.75
2022-11-15T00:48:27.346Z,4.76
2022-11-15T00:51:12.888Z,4.75
2022-11-15T00:53:58.508Z,4.73
2022-11-15T00:56:44.365Z,4.68
2022-11-15T00:59:30.177Z,4.75
2022-11-15T01:02:15.714Z,4.78
2022-11-15T01:05:01.652Z,4.67
2022-11-15T01:07:47.345Z,4.56
2022-11-15T01:10:33.350Z,4.51
2022-11-15T01:13:19.124Z,4.55
2022-11-15T01:16:14.236Z,4.62
2022-11-15T01:19:00.348Z,4.67
2022-11-15T01:21:45.956Z,4.71
2022-11-15T01:24:31.711Z,4.72
2022-11-15T01:27:17.962Z,4.77
2022-11-15T01:30:05.019Z,4.78
2022-11-15T01:32:50.744Z,4.80
2022-11-15T01:35:40.361Z,4.80
2022-11-15T01:38:26.119Z,4.79
2022-11-15T01:41:20.419Z,4.83
2022-11-15T01:44:41.985Z,4.71
2022-11-15T01:47:34.738Z,4.69
2022-11-15T01:50:33.412Z,4.63
2022-11-15T01:53:22.780Z,4.62
2022-11-15T01:56:12.263Z,4.53
2022-11-15T01:59:02.045Z,4.47
2022-11-15T02:01:47.413Z,4.23
2022-11-15T02:04:37.090Z,4.31
2022-11-15T02:07:23.801Z,4.25
2022-11-15T02:10:13.054Z,4.14
2022-11-15T02:13:01.597Z,4.10
2022-11-15T02:16:10.355Z,4.06
2022-11-15T02:19:03.971Z,4.02
2022-11-15T02:22:17.052Z,3.85
2022-11-15T02:25:35.255Z,3.93
2022-11-15T02:28:29.694Z,3.98
2022-11-15T02:31:26.601Z,4.04
2022-11-15T02:34:21.117Z,3.90
2022-11-15T02:37:36.869Z,3.81
2022-11-15T02:40:33.238Z,3.94
2022-11-15T02:43:44.853Z,3.88
2022-11-15T02:47:14.302Z,3.93
2022-11-15T02:50:03.975Z,3.85
2022-11-15T02:52:50.384Z,3.92
2022-11-15T02:55:56.224Z,3.90
2022-11-15T02:59:07.871Z,3.81
2022-11-15T03:02:24.290Z,3.82
2022-11-15T03:05:18.905Z,3.75
2022-11-15T03:08:27.429Z,3.77
2022-11-15T03:11:16.142Z,3.73
2022-11-15T03:14:16.248Z,3.80
2022-11-15T03:17:30.394Z,3.85
2022-11-15T03:20:19.141Z,3.85
2022-11-15T03:23:12.127Z,3.87
2022-11-15T03:26:00.642Z,3.93
2022-11-15T03:29:21.214Z,3.88
2022-11-15T03:32:13.134Z,3.85
2022-11-15T03:35:07.790Z,3.75
2022-11-15T03:37:55.988Z,3.70
2022-11-15T03:40:45.973Z,3.73
2022-11-15T03:43:53.042Z,3.71
2022-11-15T03:46:49.259Z,3.62
2022-11-15T03:49:37.740Z,3.58
2022-11-15T03:52:24.095Z,3.57
2022-11-15T03:55:13.938Z,3.52
2022-11-15T03:58:01.021Z,3.49
2022-11-15T04:00:46.842Z,3.48
2022-11-15T04:03:33.012Z,3.47
2022-11-15T06:07:05.597Z,3.40
2022-11-15T06:09:51.456Z,3.33
2022-11-15T06:12:37.309Z,3.40
2022-11-15T06:15:23.504Z,3.30
2022-11-15T06:18:09.122Z,3.30
2022-11-15T06:20:54.591Z,3.28
2022-11-15T06:23:40.700Z,3.22
2022-11-15T06:26:25.945Z,3.23
2022-11-15T06:29:12.034Z,3.22
2022-11-15T06:31:57.848Z,3.08
2022-11-15T06:34:43.344Z,3.09
2022-11-15T06:37:28.922Z,3.09
2022-11-15T06:40:14.498Z,3.20
2022-11-15T06:43:00.805Z,3.19
2022-11-15T06:45:46.659Z,3.13
2022-11-15T06:48:34.722Z,2.96
2022-11-15T06:51:20.906Z,2.99
2022-11-15T06:54:06.850Z,3.07
2022-11-15T06:56:52.402Z,3.19
2022-11-15T06:59:40.600Z,3.25
2022-11-15T07:02:27.435Z,3.36
2022-11-15T07:05:14.349Z,3.50
2022-11-15T07:08:00.242Z,3.19
2022-11-15T07:10:46.209Z,3.06
2022-11-15T07:13:36.690Z,3.03
2022-11-15T07:16:22.319Z,2.78
2022-11-15T07:19:10.554Z,2.75
2022-11-15T07:21:56.493Z,2.65
2022-11-15T07:24:42.416Z,2.76
2022-11-15T07:27:28.454Z,2.64
2022-11-15T07:30:15.799Z,2.72
2022-11-15T07:33:02.182Z,2.77
2022-11-15T07:35:51.184Z,2.79
2022-11-15T07:38:42.604Z,2.83
2022-11-15T07:41:29.032Z,2.91
2022-11-15T07:44:14.594Z,3.05
2022-11-15T07:47:00.349Z,3.21
2022-11-15T07:49:47.452Z,3.20
2022-11-15T07:52:33.099Z,3.25
2022-11-15T07:55:18.942Z,3.39
2022-11-15T07:58:06.984Z,3.53
2022-11-15T08:00:52.763Z,3.45
2022-11-15T08:03:38.866Z,3.56
2022-11-15T08:06:24.480Z,3.58
2022-11-15T08:09:10.276Z,3.66
2022-11-15T08:11:56.277Z,3.83
2022-11-15T08:14:42.231Z,3.92
2022-11-15T08:17:28.543Z,3.87
2022-11-15T08:20:15.079Z,4.00
2022-11-15T08:23:04.053Z,3.97
2022-11-15T08:25:49.938Z,4.03
2022-11-15T08:28:35.900Z,3.97
2022-11-15T08:31:22.067Z,4.00
2022-11-15T08:34:07.946Z,3.96
2022-11-15T08:36:53.610Z,3.88
2022-11-15T08:39:39.551Z,3.96
2022-11-15T08:42:25.826Z,3.95
2022-11-15T08:45:12.024Z,3.81
2022-11-15T08:47:58.011Z,3.91
2022-11-15T08:50:44.919Z,4.08
2022-11-15T08:53:30.379Z,4.17
2022-11-15T08:56:16.994Z,4.24
2022-11-15T08:59:02.613Z,4.24
2022-11-15T09:01:48.269Z,4.34
2022-11-15T09:04:33.941Z,4.40
2022-11-15T09:07:19.826Z,4.52
2022-11-15T09:10:05.960Z,4.52
2022-11-15T09:12:51.609Z,4.65
2022-11-15T09:15:37.386Z,4.56
2022-11-15T09:18:23.882Z,4.70
2022-11-15T09:21:10.541Z,4.65
2022-11-15T09:23:56.379Z,4.84
2022-11-15T09:26:42.474Z,4.82
2022-11-15T09:29:28.340Z,5.11
2022-11-15T09:32:14.539Z,5.26
2022-11-15T09:35:00.208Z,5.41
2022-11-15T09:37:46.090Z,5.39
2022-11-15T09:40:33.547Z,5.38
2022-11-15T09:43:37.582Z,5.39
2022-11-15T09:46:39.379Z,5.50
2022-11-15T09:49:31.264Z,5.34
2022-11-15T09:52:22.579Z,5.27
2022-11-15T09:54:54.510Z,5.12
2022-11-15T09:57:25.568Z,4.96
2022-11-15T10:00:44.825Z,5.00
2022-11-15T10:03:18.948Z,5.02
2022-11-15T10:05:51.657Z,5.10
2022-11-15T10:08:43.341Z,5.00
2022-11-15T10:11:38.344Z,5.17
2022-11-15T10:14:18.845Z,5.25
2022-11-15T10:16:58.237Z,5.23
2022-11-15T10:19:53.218Z,5.33
2022-11-15T10:22:28.867Z,5.50
2022-11-15T10:25:17.491Z,5.40
2022-11-15T10:27:48.607Z,5.47
2022-11-15T10:30:18.885Z,5.53
2022-11-15T10:32:48.487Z,5.50
2022-11-15T10:35:25.953Z,5.18
2022-11-15T10:37:53.485Z,5.17
2022-11-15T10:40:25.247Z,5.20
2022-11-15T10:43:20.021Z,5.05
2022-11-15T10:45:48.237Z,4.99
2022-11-15T10:48:15.505Z,5.01
2022-11-15T10:50:45.143Z,4.91
2022-11-15T10:53:20.128Z,4.91
2022-11-15T10:55:50.026Z,5.01
2022-11-15T10:58:30.767Z,4.96
2022-11-15T11:01:17.263Z,5.05
2022-11-15T11:03:46.576Z,5.17
2022-11-15T11:06:19.843Z,5.25
2022-11-15T11:08:55.409Z,5.26
2022-11-15T11:11:22.608Z,5.24
2022-11-15T11:13:50.053Z,5.43
2022-11-15T11:16:43.754Z,5.33
2022-11-15T11:19:29.289Z,5.27
2022-11-15T11:22:21.053Z,5.27
2022-11-15T11:24:48.281Z,5.36
2022-11-15T11:27:41.395Z,5.36
2022-11-15T11:30:31.594Z,5.35
2022-11-15T11:33:20.355Z,5.38
2022-11-15T11:36:00.752Z,5.47
2022-11-15T11:38:59.464Z,5.51
2022-11-15T11:42:05.528Z,5.69
2022-11-15T11:45:00.596Z,5.61
2022-11-15T11:47:36.511Z,5.66
2022-11-15T11:50:19.069Z,5.77
2022-11-15T11:53:10.850Z,5.62
2022-11-15T11:56:00.377Z,5.62
2022-11-15T11:58:41.693Z,5.55
2022-11-15T12:01:22.340Z,5.54
2022-11-15T12:03:58.005Z,5.65
2022-11-15T12:06:34.125Z,5.79
2022-11-15T12:09:38.506Z,5.86
2022-11-15T12:12:27.378Z,5.99
2022-11-15T12:15:00.875Z,5.97
2022-11-15T12:17:33.665Z,5.99
2022-11-15T12:20:02.752Z,6.03
2022-11-15T12:22:43.165Z,5.95
2022-11-15T12:25:17.861Z,5.97
2022-11-15T12:28:01.545Z,6.01
2022-11-15T12:30:44.826Z,6.03
2022-11-15T12:33:36.791Z,6.04
2022-11-15T12:36:12.309Z,5.98
2022-11-15T12:38:59.063Z,6.07
2022-11-15T12:41:31.661Z,5.98
2022-11-15T12:44:03.374Z,6.04
2022-11-15T12:46:31.142Z,6.15
2022-11-15T12:49:11.252Z,6.19
2022-11-15T12:51:44.839Z,6.12
2022-11-15T12:54:24.233Z,6.13
2022-11-15T12:57:09.364Z,6.05
2022-11-15T13:00:02.611Z,6.12
2022-11-15T13:02:47.983Z,6.04
2022-11-15T13:05:21.563Z,6.07
2022-11-15T13:07:49.168Z,6.01
2022-11-15T13:10:31.047Z,6.14
2022-11-15T13:13:08.842Z,6.17
2022-11-15T13:15:43.197Z,6.14
2022-11-15T13:18:33.325Z,6.09
2022-11-15T13:21:02.951Z,6.19
2022-11-15T13:23:30.418Z,6.12
2022-11-15T13:26:07.495Z,6.12
2022-11-15T13:28:46.972Z,6.09
2022-11-15T13:31:39.087Z,6.16
2022-11-15T13:34:49.911Z,6.18
2022-11-15T13:37:33.755Z,6.05
2022-11-15T13:40:22.922Z,6.14
2022-11-15T13:42:51.262Z,6.14
2022-11-15T13:45:20.172Z,6.05
2022-11-15T13:47:57.124Z,6.06
2022-11-15T13:50:34.886Z,6.09
2022-11-15T13:53:06.041Z,6.13
2022-11-15T13:55:34.516Z,6.10
2022-11-15T13:58:09.253Z,6.06
2022-11-15T14:00:46.147Z,6.14
2022-11-15T14:03:27.294Z,6.16
2022-11-15T14:06:16.361Z,6.08
2022-11-15T14:09:16.010Z,6.09
2022-11-15T14:11:56.313Z,6.06
2022-11-15T14:14:26.363Z,6.00
2022-11-15T14:17:05.216Z,6.03
2022-11-15T14:19:33.522Z,6.00
2022-11-15T14:22:15.144Z,6.07
2022-11-15T14:24:45.491Z,6.06
2022-11-15T14:27:26.169Z,6.10
2022-11-15T14:29:54.646Z,6.04
2022-11-15T14:32:27.148Z,6.09
2022-11-15T14:35:00.116Z,6.10
2022-11-15T14:52:57.487Z,6.98
2022-11-15T14:55:33.882Z,6.71
2022-11-15T14:58:03.709Z,6.63
2022-11-15T15:00:35.373Z,6.55
2022-11-15T15:03:03.886Z,6.53
2022-11-15T15:05:43.673Z,6.51
2022-11-15T15:08:12.268Z,6.44
2022-11-15T15:10:43.367Z,6.36
2022-11-15T15:13:23.459Z,6.43
2022-11-15T15:15:52.794Z,6.37
2022-11-15T15:18:21.305Z,6.30
2022-11-15T15:21:37.091Z,6.29
2022-11-15T15:24:05.212Z,6.31
2022-11-15T15:26:37.754Z,6.32
2022-11-15T15:29:05.466Z,6.25
2022-11-15T15:31:34.614Z,6.19
2022-11-15T15:34:02.690Z,6.19
2022-11-15T15:36:30.021Z,6.17
2022-11-15T15:38:57.387Z,6.14
2022-11-15T15:41:25.098Z,6.12
2022-11-15T15:43:52.622Z,6.13
2022-11-15T15:46:21.436Z,6.17
2022-11-15T15:48:50.260Z,6.15
2022-11-15T15:51:20.354Z,6.16
2022-11-15T15:53:49.140Z,6.20
2022-11-15T15:56:16.743Z,6.14
2022-11-15T15:58:44.174Z,6.18
2022-11-15T16:01:11.786Z,6.13
2022-11-15T16:03:39.236Z,6.22
2022-11-15T16:06:26.753Z,6.23
2022-11-15T16:09:14.281Z,6.18
2022-11-15T16:11:43.310Z,6.21
2022-11-15T16:14:10.831Z,6.22
2022-11-15T16:16:38.644Z,6.15
2022-11-15T16:19:06.265Z,6.11
2022-11-15T16:21:34.026Z,6.14
2022-11-15T16:24:02.688Z,6.17
2022-11-15T16:26:31.615Z,6.20
2022-11-15T16:28:59.331Z,6.19
2022-11-15T16:31:26.745Z,6.17
2022-11-15T16:33:54.146Z,6.19
2022-11-15T16:36:30.797Z,6.19
2022-11-15T16:38:59.808Z,6.18
2022-11-15T16:41:27.497Z,6.27
2022-11-15T16:43:54.592Z,6.24
2022-11-15T16:46:25.599Z,6.21
2022-11-15T16:48:56.980Z,6.30
2022-11-15T16:51:24.434Z,6.30
2022-11-15T16:53:51.633Z,6.32
2022-11-15T16:56:18.798Z,6.31
2022-11-15T16:58:45.850Z,6.31
2022-11-15T17:01:30.148Z,6.30
2022-11-15T17:03:57.976Z,6.26
2022-11-15T17:06:26.569Z,6.32
2022-11-15T17:08:54.920Z,6.40
2022-11-15T17:11:23.137Z,6.43
2022-11-15T17:13:50.418Z,6.49
2022-11-15T17:16:18.667Z,6.45
2022-11-15T17:18:45.933Z,6.44
2022-11-15T17:21:18.642Z,6.37
2022-11-15T17:23:46.100Z,6.40
2022-11-15T17:26:29.656Z,6.47
2022-11-15T17:28:59.367Z,6.55
2022-11-15T17:31:26.317Z,6.61
2022-11-15T17:33:53.802Z,6.73
2022-11-15T17:36:21.302Z,6.82
2022-11-15T17:38:56.572Z,6.88
2022-11-15T17:41:26.809Z,6.93
2022-11-15T17:43:54.011Z,6.99
2022-11-15T17:46:23.128Z,6.99
2022-11-15T17:48:50.316Z,6.92
2022-11-15T17:51:18.849Z,6.91
2022-11-15T17:53:48.678Z,6.85
2022-11-15T17:56:18.686Z,6.86
2022-11-15T17:59:07.737Z,6.82
2022-11-15T18:01:40.007Z,6.79
2022-11-15T18:04:10.307Z,6.78
2022-11-15T18:06:37.888Z,6.65
2022-11-15T18:09:07.243Z,6.62
2022-11-15T18:11:38.686Z,6.59
2022-11-15T18:14:09.541Z,6.59
2022-11-15T18:16:38.050Z,6.52
2022-11-15T18:19:14.425Z,6.50
2022-11-15T18:21:56.636Z,6.43
2022-11-15T18:24:24.648Z,6.37
2022-11-15T18:26:51.938Z,6.44
2022-11-15T18:29:19.991Z,6.30
2022-11-15T18:31:50.169Z,6.30
2022-11-15T18:34:17.868Z,6.33
2022-11-15T18:36:44.833Z,6.41
2022-11-15T18:39:16.660Z,6.36
2022-11-15T18:41:46.890Z,6.38
2022-11-15T18:44:14.804Z,6.38
2022-11-15T18:46:42.887Z,6.36
2022-11-15T18:49:12.747Z,6.34
2022-11-15T18:51:43.471Z,6.36
2022-11-15T18:54:12.562Z,6.34
2022-11-15T18:56:40.926Z,6.30
2022-11-15T18:59:08.894Z,6.37
2022-11-15T19:01:38.620Z,6.36
2022-11-15T19:04:09.328Z,6.33
2022-11-15T22:28:36.423Z,6.59
2022-11-15T22:31:04.513Z,6.67
2022-11-15T22:33:33.396Z,6.73
2022-11-15T22:36:01.063Z,6.80
2022-11-15T22:38:30.053Z,6.85
2022-11-15T22:40:57.923Z,6.88
2022-11-15T22:43:26.687Z,6.88
2022-11-15T22:45:57.278Z,6.90
2022-11-15T22:48:37.111Z,7.01
2022-11-15T22:51:05.360Z,7.00
2022-11-15T22:53:32.504Z,7.06
2022-11-15T22:56:01.875Z,7.10
2022-11-15T22:58:31.295Z,7.11
2022-11-15T23:01:01.682Z,7.15
2022-11-15T23:03:30.187Z,7.15
2022-11-15T23:06:07.723Z,7.22
2022-11-15T23:08:35.247Z,7.23
2022-11-15T23:11:27.002Z,7.26
2022-11-15T23:13:54.232Z,7.24
2022-11-15T23:16:25.831Z,7.27
2022-11-15T23:18:56.589Z,7.29
2022-11-15T23:21:48.126Z,7.27
2022-11-15T23:24:16.304Z,7.26
2022-11-15T23:26:44.396Z,7.24
2022-11-15T23:29:14.715Z,7.26
2022-11-15T23:32:02.460Z,7.26
2022-11-15T23:34:35.475Z,7.25
2022-11-15T23:37:02.467Z,7.26
2022-11-15T23:39:29.636Z,7.23
2022-11-15T23:41:57.365Z,7.22
2022-11-15T23:44:25.114Z,7.24
2022-11-15T23:46:53.025Z,7.23
2022-11-15T23:49:20.770Z,7.24
2022-11-15T23:51:48.626Z,7.27
2022-11-15T23:54:16.130Z,7.26
2022-11-15T23:56:43.512Z,7.26
2022-11-15T23:59:11.280Z,7.24
